This is the latest recevied weather packets stored in our database for station/object PP5KJ-13. If no packets are shown the sender has not sent any weather packets the latest 10 day(s).
| Time | Temp. | Humidity | Pressure | Rain* | Wind** | Luminosity | Snow |
|---|---|---|---|---|---|---|---|
| 1788441808 | 23.33° C | 5% | 1017 hPa | 0 mm | 8.94 m/s, 340° | - | - |
| 1788441223 | 23.33° C | 5% | 1017 hPa | 0 mm | 8.94 m/s, 340° | - | - |
| 1788437593 | 22.22° C | 5% | 1017 hPa | 0 mm | 8.05 m/s, 340° | - | - |
| 1788436993 | 22.22° C | 5% | 1017 hPa | 0 mm | 6.71 m/s, 320° | - | - |
| 1788436412 | 21.67° C | 5% | 1017 hPa | 0 mm | 6.71 m/s, 320° | - | - |
| 1788431593 | 20° C | 5% | 1016 hPa | 0 mm | 4.92 m/s, 320° | - | - |
| 1788430993 | 20° C | 5% | 1016 hPa | 0 mm | 4.92 m/s, 320° | - | - |
| 1788430393 | 20° C | 5% | 1016 hPa | 0 mm | 4.92 m/s, 320° | - | - |
| 1788429792 | 20° C | 5% | 1016 hPa | 0 mm | 5.81 m/s, 330° | - | - |
| 1788429193 | 19.44° C | 5% | 1016 hPa | 0 mm | 5.81 m/s, 330° | - | - |
| 1788427992 | 19.44° C | 5% | 1016 hPa | 0 mm | 5.81 m/s, 330° | - | - |
| 1788427391 | 19.44° C | 5% | 1016 hPa | 0 mm | 5.81 m/s, 330° | - | - |
| 1788426791 | 19.44° C | 5% | 1016 hPa | 0 mm | 5.81 m/s, 330° | - | - |
| 1788426191 | 18.89° C | 5% | 1016 hPa | 0 mm | 6.26 m/s, 310° | - | - |
| 1788425591 | 19.44° C | 5% | 1016 hPa | 0 mm | 6.26 m/s, 310° | - | - |
| 1788424391 | 18.89° C | 5% | 1017 hPa | 0 mm | 6.26 m/s, 310° | - | - |
| 1788423791 | 18.89° C | 5% | 1017 hPa | 0 mm | 6.26 m/s, 310° | - | - |
| 1788423192 | 18.89° C | 5% | 1017 hPa | 0 mm | 6.26 m/s, 310° | - | - |
| 1788422591 | 18.89° C | 5% | 1017 hPa | 0 mm | 5.81 m/s, 310° | - | - |
| 1788421991 | 18.89° C | 5% | 1017 hPa | 0 mm | 5.81 m/s, 310° | - | - |
| 1788421391 | 18.89° C | 5% | 1017 hPa | 0 mm | 5.81 m/s, 310° | - | - |
| 1788420791 | 18.89° C | 5% | 1017 hPa | 0 mm | 5.81 m/s, 310° | - | - |
| 1788420191 | 18.89° C | 5% | 1017 hPa | 0 mm | 5.81 m/s, 310° | - | - |
| 1788419591 | 18.89° C | 5% | 1017 hPa | 0 mm | 4.92 m/s, 300° | - | - |
| 1788418991 | 18.89° C | 5% | 1017 hPa | 0 mm | 4.92 m/s, 300° | - | - |
* Rain latest hour (hover to see other rain measurements)
** Current wind speed in m/s (hover to see current wind gust speed)